Time;durP1;ratioP1;P1;durP2;ratioP2;P2;SDS_P1;SDS_P2;PMS_P1;PMS_P2;Temp;Humidity;BMP_temperature;BMP_pressure;BME280_temperature;BME280_humidity;BME280_pressure;Samples;Min_cycle;Max_cycle;Signal;HPM_P1;HPM_P2
2021/03/23 00:00:32;;;;;;;3.70;3.40;;;;;;;;;;5036436;28;20186;-84
2021/03/23 00:03:02;;;;;;;5.43;4.25;;;;;;;;;;5036406;28;20273;-84
2021/03/23 00:05:30;;;;;;;8.80;4.60;;;;;;;;;;5036741;28;20210;-85
2021/03/23 00:07:58;;;;;;;6.32;4.50;;;;;;;;;;5035454;28;20217;-83
2021/03/23 00:10:27;;;;;;;5.53;4.72;;;;;;;;;;5036582;28;20333;-84
2021/03/23 00:12:56;;;;;;;6.07;4.65;;;;;;;;;;5035868;28;20194;-85
2021/03/23 00:15:24;;;;;;;6.65;5.05;;;;;;;;;;5036262;28;20187;-84
2021/03/23 00:17:52;;;;;;;6.43;5.25;;;;;;;;;;5036334;28;20807;-83
2021/03/23 00:20:23;;;;;;;5.85;5.25;;;;;;;;;;5028992;28;20193;-84
2021/03/23 00:22:50;;;;;;;6.13;5.25;;;;;;;;;;5036762;28;20663;-84
2021/03/23 00:25:19;;;;;;;4.82;4.40;;;;;;;;;;5036255;28;20657;-84
2021/03/23 00:27:46;;;;;;;6.07;5.20;;;;;;;;;;5036162;28;20628;-84
2021/03/23 00:30:15;;;;;;;7.22;4.95;;;;;;;;;;5036388;28;20240;-84
2021/03/23 00:32:42;;;;;;;7.25;5.43;;;;;;;;;;5036482;28;20201;-85
2021/03/23 00:35:11;;;;;;;6.70;4.97;;;;;;;;;;5036336;28;20759;-84
2021/03/23 00:37:40;;;;;;;5.82;4.95;;;;;;;;;;5036874;28;20211;-85
2021/03/23 00:40:12;;;;;;;6.13;5.05;;;;;;;;;;5036137;28;20285;-84
2021/03/23 00:42:40;;;;;;;5.95;5.00;;;;;;;;;;5036477;28;20254;-84
2021/03/23 00:45:10;;;;;;;6.68;4.80;;;;;;;;;;5029059;28;20591;-84
2021/03/23 00:47:38;;;;;;;7.65;4.93;;;;;;;;;;5036390;28;20230;-84
2021/03/23 00:50:07;;;;;;;5.47;4.97;;;;;;;;;;5036365;28;20262;-84
2021/03/23 00:52:34;;;;;;;4.53;4.07;;;;;;;;;;5036467;28;20190;-84
2021/03/23 00:55:03;;;;;;;5.68;4.97;;;;;;;;;;5036220;28;20238;-84
2021/03/23 00:57:32;;;;;;;7.32;5.30;;;;;;;;;;5036077;28;20309;-84
2021/03/23 00:59:59;;;;;;;6.18;5.00;;;;;;;;;;5035600;28;20245;-84
2021/03/23 01:02:27;;;;;;;6.10;5.20;;;;;;;;;;5035799;28;20202;-84
2021/03/23 01:04:55;;;;;;;6.07;5.32;;;;;;;;;;5035739;28;20194;-84
2021/03/23 01:07:22;;;;;;;10.30;5.68;;;;;;;;;;5035490;28;20321;-85
2021/03/23 01:09:49;;;;;;;7.28;5.43;;;;;;;;;;5035567;28;20197;-84
2021/03/23 01:12:16;;;;;;;5.03;4.60;;;;;;;;;;5035050;28;20198;-85
2021/03/23 01:14:44;;;;;;;5.43;4.70;;;;;;;;;;5034933;28;20273;-84
2021/03/23 01:17:13;;;;;;;6.65;5.47;;;;;;;;;;5035170;28;20309;-84
2021/03/23 01:19:46;;;;;;;5.53;5.03;;;;;;;;;;5035403;28;20229;-84
2021/03/23 01:22:13;;;;;;;5.75;5.25;;;;;;;;;;5035467;28;20686;-84
2021/03/23 01:24:40;;;;;;;9.20;5.05;;;;;;;;;;5035244;28;20193;-84
2021/03/23 01:27:09;;;;;;;7.47;5.57;;;;;;;;;;5034968;28;20309;-84
2021/03/23 01:29:37;;;;;;;6.47;5.65;;;;;;;;;;5035283;28;20215;-84
2021/03/23 01:32:07;;;;;;;7.13;5.07;;;;;;;;;;5035155;28;20624;-84
2021/03/23 01:34:35;;;;;;;8.60;5.70;;;;;;;;;;5034991;28;20229;-84
2021/03/23 01:37:03;;;;;;;5.88;5.32;;;;;;;;;;5035118;28;20309;-85
2021/03/23 01:39:32;;;;;;;8.30;5.85;;;;;;;;;;5034495;28;20669;-85
2021/03/23 01:41:59;;;;;;;7.00;5.85;;;;;;;;;;5034513;28;20206;-84
2021/03/23 01:44:26;;;;;;;6.53;5.35;;;;;;;;;;5035293;28;20270;-84
2021/03/23 01:46:54;;;;;;;6.15;4.60;;;;;;;;;;5034693;28;20582;-84
2021/03/23 01:49:24;;;;;;;7.63;5.63;;;;;;;;;;5034733;28;20193;-84
2021/03/23 01:51:55;;;;;;;5.38;4.88;;;;;;;;;;5034622;28;20210;-84
2021/03/23 01:54:26;;;;;;;7.97;6.03;;;;;;;;;;5034698;28;20234;-85
2021/03/23 01:56:58;;;;;;;5.45;4.93;;;;;;;;;;5034745;28;20222;-84
2021/03/23 01:59:26;;;;;;;10.30;6.90;;;;;;;;;;5034669;28;20210;-84
2021/03/23 02:01:54;;;;;;;6.05;4.78;;;;;;;;;;5034422;28;20199;-84
2021/03/23 02:04:21;;;;;;;6.30;5.53;;;;;;;;;;5034931;28;20251;-84
2021/03/23 02:06:49;;;;;;;5.53;4.43;;;;;;;;;;5034935;28;20226;-84
2021/03/23 02:09:21;;;;;;;6.88;5.70;;;;;;;;;;5034463;28;20193;-84
2021/03/23 02:11:51;;;;;;;7.35;5.38;;;;;;;;;;5034838;28;20194;-84
2021/03/23 02:14:21;;;;;;;5.80;5.28;;;;;;;;;;5034664;28;20752;-84
2021/03/23 02:16:49;;;;;;;6.95;5.15;;;;;;;;;;5042056;23;20239;-83
2021/03/23 02:19:18;;;;;;;7.80;5.57;;;;;;;;;;5013678;28;20209;-85
2021/03/23 02:21:47;;;;;;;6.80;5.57;;;;;;;;;;5013262;28;20207;-86
2021/03/23 02:24:15;;;;;;;6.03;5.53;;;;;;;;;;5011585;28;20207;-84
2021/03/23 02:26:44;;;;;;;5.65;5.13;;;;;;;;;;5010568;28;20237;-86
2021/03/23 02:29:15;;;;;;;4.72;4.32;;;;;;;;;;5011198;28;20184;-84
2021/03/23 02:31:46;;;;;;;5.50;5.00;;;;;;;;;;5011455;28;20199;-85
2021/03/23 02:34:17;;;;;;;9.45;6.03;;;;;;;;;;5011418;28;20252;-84
2021/03/23 02:36:47;;;;;;;5.90;5.30;;;;;;;;;;5010999;28;20215;-86
2021/03/23 02:39:18;;;;;;;5.10;4.60;;;;;;;;;;5012624;28;20566;-84
2021/03/23 02:41:45;;;;;;;5.03;4.60;;;;;;;;;;5013235;28;20205;-85
2021/03/23 02:44:12;;;;;;;6.45;4.82;;;;;;;;;;5012892;28;20206;-86
2021/03/23 02:46:40;;;;;;;6.35;5.10;;;;;;;;;;5012588;28;20292;-86
2021/03/23 02:49:08;;;;;;;6.07;4.90;;;;;;;;;;5012661;28;20232;-85
2021/03/23 02:51:35;;;;;;;8.13;5.45;;;;;;;;;;5012302;28;20210;-85
2021/03/23 02:54:04;;;;;;;5.40;4.90;;;;;;;;;;5012978;28;20195;-86
2021/03/23 02:56:31;;;;;;;5.25;4.75;;;;;;;;;;5012316;28;20225;-85
2021/03/23 02:58:58;;;;;;;7.35;5.35;;;;;;;;;;5013206;28;20271;-85
2021/03/23 03:01:25;;;;;;;6.03;5.28;;;;;;;;;;5013210;28;20234;-85
2021/03/23 03:03:53;;;;;;;5.78;5.00;;;;;;;;;;5013162;28;20195;-84
2021/03/23 03:06:20;;;;;;;6.47;5.15;;;;;;;;;;5013034;28;20206;-86
2021/03/23 03:08:48;;;;;;;5.00;4.53;;;;;;;;;;5012830;28;20672;-85
2021/03/23 03:11:16;;;;;;;6.88;5.38;;;;;;;;;;5013083;28;20199;-86
2021/03/23 03:13:43;;;;;;;6.82;5.10;;;;;;;;;;5013205;28;20270;-84
2021/03/23 03:16:10;;;;;;;5.90;5.40;;;;;;;;;;5012318;28;20294;-85
2021/03/23 03:18:37;;;;;;;5.53;5.03;;;;;;;;;;5012358;28;20330;-86
2021/03/23 03:21:05;;;;;;;5.55;5.05;;;;;;;;;;5012902;28;20209;-85
2021/03/23 03:23:33;;;;;;;5.72;5.22;;;;;;;;;;5018030;28;20209;-85
2021/03/23 03:26:00;;;;;;;5.25;4.80;;;;;;;;;;5017520;28;20274;-85
2021/03/23 03:28:28;;;;;;;6.22;5.63;;;;;;;;;;5011667;28;20574;-84
2021/03/23 03:30:56;;;;;;;5.07;4.50;;;;;;;;;;5015107;28;20555;-84
2021/03/23 03:33:25;;;;;;;4.85;4.20;;;;;;;;;;5014822;28;20614;-84
2021/03/23 03:35:52;;;;;;;5.20;4.30;;;;;;;;;;5015123;28;20190;-84
2021/03/23 03:38:23;;;;;;;5.60;4.85;;;;;;;;;;5014672;28;20309;-84
2021/03/23 03:40:54;;;;;;;5.07;4.50;;;;;;;;;;5015249;28;20282;-85
2021/03/23 03:43:24;;;;;;;5.90;5.32;;;;;;;;;;5015168;28;20209;-85
2021/03/23 03:45:52;;;;;;;5.25;4.68;;;;;;;;;;5014827;28;20188;-84
2021/03/23 03:48:20;;;;;;;4.30;3.90;;;;;;;;;;5014952;28;20295;-85
2021/03/23 03:50:47;;;;;;;5.05;4.30;;;;;;;;;;5015448;28;20194;-85
2021/03/23 03:53:14;;;;;;;5.57;4.63;;;;;;;;;;5015125;28;20186;-84
2021/03/23 03:55:45;;;;;;;5.38;4.82;;;;;;;;;;5014725;28;20230;-84
2021/03/23 03:58:13;;;;;;;5.78;5.18;;;;;;;;;;5014887;28;20228;-83
2021/03/23 04:00:41;;;;;;;11.00;4.35;;;;;;;;;;5014510;28;20274;-84
2021/03/23 04:03:17;;;;;;;4.82;4.43;;;;;;;;;;5014319;28;20299;-84
2021/03/23 04:05:47;;;;;;;6.75;5.00;;;;;;;;;;5014827;28;20190;-83
2021/03/23 04:08:18;;;;;;;5.20;4.70;;;;;;;;;;5014458;28;20227;-83
2021/03/23 04:10:46;;;;;;;6.18;4.80;;;;;;;;;;5014901;28;20183;-84
2021/03/23 04:13:13;;;;;;;6.28;4.63;;;;;;;;;;5014706;28;20270;-84
2021/03/23 04:15:44;;;;;;;5.75;4.55;;;;;;;;;;5013744;28;20206;-84
2021/03/23 04:18:14;;;;;;;4.68;4.28;;;;;;;;;;5014815;28;20235;-85
2021/03/23 04:20:42;;;;;;;5.45;4.85;;;;;;;;;;5015243;28;20223;-85
2021/03/23 04:23:18;;;;;;;6.15;4.30;;;;;;;;;;5014995;28;20187;-85
2021/03/23 04:25:45;;;;;;;5.18;4.22;;;;;;;;;;5015404;28;20183;-84
2021/03/23 04:28:13;;;;;;;6.03;5.43;;;;;;;;;;5015387;28;20574;-86
2021/03/23 04:30:41;;;;;;;4.65;3.85;;;;;;;;;;5015312;28;20277;-85
2021/03/23 04:33:08;;;;;;;6.88;5.05;;;;;;;;;;5015061;28;20218;-86
2021/03/23 04:35:44;;;;;;;6.45;4.93;;;;;;;;;;5015572;28;20621;-84
2021/03/23 04:38:15;;;;;;;5.95;4.53;;;;;;;;;;5015374;28;20230;-86
2021/03/23 04:40:42;;;;;;;5.72;4.63;;;;;;;;;;5015057;28;20179;-85
2021/03/23 04:43:11;;;;;;;4.28;3.88;;;;;;;;;;5016190;28;20275;-85
2021/03/23 04:45:38;;;;;;;5.68;4.47;;;;;;;;;;5015414;28;20262;-85
2021/03/23 04:48:06;;;;;;;6.75;4.55;;;;;;;;;;5015421;28;20273;-85
2021/03/23 04:50:33;;;;;;;4.70;4.28;;;;;;;;;;5015775;28;20187;-84
2021/03/23 04:53:01;;;;;;;5.20;4.70;;;;;;;;;;5014966;28;20231;-85
2021/03/23 04:55:28;;;;;;;4.53;4.13;;;;;;;;;;5015123;28;20192;-85
2021/03/23 04:57:55;;;;;;;5.18;4.45;;;;;;;;;;5015386;28;20219;-85
2021/03/23 05:00:22;;;;;;;6.07;4.40;;;;;;;;;;5014904;28;20263;-85
2021/03/23 05:02:51;;;;;;;4.53;4.15;;;;;;;;;;5014925;28;20187;-84
2021/03/23 05:05:18;;;;;;;7.50;4.68;;;;;;;;;;5015207;28;20213;-85
2021/03/23 05:07:45;;;;;;;4.25;3.90;;;;;;;;;;5014856;28;20230;-86
2021/03/23 05:10:14;;;;;;;6.32;4.18;;;;;;;;;;5015404;28;20191;-85
2021/03/23 05:12:41;;;;;;;4.95;4.45;;;;;;;;;;5015482;28;20207;-85
2021/03/23 05:15:10;;;;;;;8.77;5.07;;;;;;;;;;5015053;28;20280;-86
2021/03/23 05:17:38;;;;;;;4.40;3.80;;;;;;;;;;5014424;28;20289;-84
2021/03/23 05:20:08;;;;;;;5.22;4.63;;;;;;;;;;5014247;28;20187;-84
2021/03/23 05:22:35;;;;;;;5.13;4.63;;;;;;;;;;5014712;28;20233;-84
2021/03/23 05:25:04;;;;;;;14.73;5.40;;;;;;;;;;5014301;28;20249;-84
2021/03/23 05:27:32;;;;;;;5.75;5.10;;;;;;;;;;5015227;28;20227;-85
2021/03/23 05:29:59;;;;;;;5.28;4.63;;;;;;;;;;5015312;28;20556;-85
2021/03/23 05:32:26;;;;;;;4.70;4.03;;;;;;;;;;5015007;28;20194;-84
2021/03/23 05:34:53;;;;;;;4.30;3.90;;;;;;;;;;5015266;28;20209;-86
2021/03/23 05:37:21;;;;;;;7.05;4.70;;;;;;;;;;5015609;28;20223;-85
2021/03/23 05:39:48;;;;;;;5.60;4.60;;;;;;;;;;5015272;28;20275;-86
2021/03/23 05:42:22;;;;;;;4.68;4.13;;;;;;;;;;5015819;28;20191;-85
2021/03/23 05:45:07;;;;;;;6.13;3.92;;;;;;;;;;5015385;28;20645;-85
2021/03/23 05:47:40;;;;;;;5.05;4.55;;;;;;;;;;5015772;28;20218;-86
2021/03/23 05:50:18;;;;;;;5.18;4.55;;;;;;;;;;5016280;28;20207;-86
2021/03/23 05:52:52;;;;;;;5.68;4.22;;;;;;;;;;5015406;28;20187;-86
2021/03/23 05:55:34;;;;;;;5.50;4.50;;;;;;;;;;5017361;28;20210;-86
2021/03/23 05:58:02;;;;;;;5.30;4.80;;;;;;;;;;5016283;28;20286;-86
2021/03/23 06:00:33;;;;;;;4.05;3.72;;;;;;;;;;5016736;28;20554;-85
2021/03/23 06:03:05;;;;;;;3.88;3.47;;;;;;;;;;5016387;28;20192;-86
2021/03/23 06:05:43;;;;;;;5.10;3.22;;;;;;;;;;5016260;28;20592;-86
2021/03/23 06:08:27;;;;;;;4.60;3.80;;;;;;;;;;5016379;28;20529;-86
2021/03/23 06:11:50;;;;;;;6.05;4.35;;;;;;;;;;5015988;28;20253;-86
2021/03/23 06:14:37;;;;;;;5.53;4.05;;;;;;;;;;5016332;28;20576;-84
2021/03/23 06:17:15;;;;;;;4.40;4.00;;;;;;;;;;5015806;28;20231;-86
2021/03/23 06:19:49;;;;;;;4.60;3.58;;;;;;;;;;5016073;28;20652;-85
2021/03/23 06:22:37;;;;;;;5.32;4.10;;;;;;;;;;5015729;28;20189;-86
2021/03/23 06:25:17;;;;;;;4.78;4.18;;;;;;;;;;5015812;28;20207;-86
2021/03/23 06:27:52;;;;;;;6.15;4.28;;;;;;;;;;5016342;28;20227;-86
2021/03/23 06:30:56;;;;;;;4.85;3.60;;;;;;;;;;5015995;28;20183;-86
2021/03/23 06:33:27;;;;;;;3.75;3.40;;;;;;;;;;4991063;28;20897;-86
2021/03/23 06:35:57;;;;;;;5.47;3.63;;;;;;;;;;5015517;28;20175;-86
2021/03/23 06:38:28;;;;;;;4.47;3.80;;;;;;;;;;5015803;28;20222;-86
2021/03/23 06:41:27;;;;;;;4.15;3.75;;;;;;;;;;5017566;28;20578;-86
2021/03/23 06:43:57;;;;;;;5.68;3.75;;;;;;;;;;4936463;29;20592;-86
2021/03/23 06:46:41;;;;;;;6.50;3.70;;;;;;;;;;4999936;28;20250;-85
2021/03/23 06:49:34;;;;;;;4.22;3.83;;;;;;;;;;5015924;28;20275;-85
2021/03/23 06:52:22;;;;;;;4.72;3.58;;;;;;;;;;5015722;28;20195;-86
2021/03/23 06:55:22;;;;;;;3.70;3.40;;;;;;;;;;5013107;28;20218;-86
2021/03/23 06:57:49;;;;;;;3.50;3.20;;;;;;;;;;5015873;28;20226;-86
2021/03/23 07:00:27;;;;;;;3.83;3.30;;;;;;;;;;5014050;28;20199;-86
2021/03/23 07:03:09;;;;;;;4.30;3.50;;;;;;;;;;5015670;28;20667;-86
2021/03/23 07:05:40;;;;;;;3.88;3.58;;;;;;;;;;5017748;28;20261;-86
2021/03/23 07:08:20;;;;;;;4.47;4.07;;;;;;;;;;5017669;28;20322;-86
2021/03/23 07:11:07;;;;;;;4.85;4.35;;;;;;;;;;5018335;28;20289;-86
2021/03/23 07:13:37;;;;;;;4.25;3.80;;;;;;;;;;5033895;28;20301;-86
2021/03/23 07:16:16;;;;;;;4.22;3.63;;;;;;;;;;5039499;28;20251;-85
2021/03/23 07:18:47;;;;;;;3.80;3.50;;;;;;;;;;5019102;28;20194;-86
2021/03/23 07:21:31;;;;;;;4.13;3.70;;;;;;;;;;5018148;28;20268;-86
2021/03/23 07:24:06;;;;;;;4.80;4.15;;;;;;;;;;5017171;28;20246;-86
2021/03/23 07:26:40;;;;;;;3.80;3.50;;;;;;;;;;5015838;28;20225;-85
2021/03/23 07:29:27;;;;;;;4.30;3.80;;;;;;;;;;5021237;28;20210;-86
2021/03/23 07:32:15;;;;;;;9.02;4.85;;;;;;;;;;5036823;28;20194;-86
2021/03/23 07:34:57;;;;;;;3.90;3.60;;;;;;;;;;5036955;28;20240;-86
2021/03/23 07:37:32;;;;;;;4.13;3.72;;;;;;;;;;5038526;28;20222;-86
2021/03/23 07:40:04;;;;;;;4.82;3.17;;;;;;;;;;5038847;28;20182;-86
2021/03/23 07:42:36;;;;;;;5.05;3.60;;;;;;;;;;5038889;28;20277;-85
2021/03/23 07:45:11;;;;;;;4.10;3.80;;;;;;;;;;5035905;28;20202;-85
2021/03/23 07:47:45;;;;;;;4.90;3.97;;;;;;;;;;5016890;28;20222;-85
2021/03/23 07:50:16;;;;;;;4.90;4.47;;;;;;;;;;5013575;28;20265;-85
2021/03/23 07:52:48;;;;;;;5.18;4.13;;;;;;;;;;5012809;28;20202;-84
2021/03/23 07:55:19;;;;;;;5.70;5.10;;;;;;;;;;5012044;28;20294;-85
2021/03/23 07:58:17;;;;;;;4.80;4.10;;;;;;;;;;5011557;28;20704;-86
2021/03/23 08:01:32;;;;;;;7.63;5.07;;;;;;;;;;5011849;28;20604;-85
2021/03/23 08:04:10;;;;;;;4.28;3.88;;;;;;;;;;5011698;28;20199;-85
2021/03/23 08:07:02;;;;;;;4.25;3.85;;;;;;;;;;5011410;28;20211;-86
2021/03/23 08:09:57;;;;;;;4.35;3.95;;;;;;;;;;5026392;28;20246;-85
2021/03/23 08:13:07;;;;;;;5.15;4.38;;;;;;;;;;5031348;28;20183;-85
2021/03/23 08:16:10;;;;;;;5.57;5.07;;;;;;;;;;4992156;28;20306;-84
2021/03/23 08:19:20;;;;;;;6.65;4.85;;;;;;;;;;5029417;23;20722;-87
2021/03/23 08:22:51;;;;;;;5.47;4.93;;;;;;;;;;5001100;28;20184;-86
2021/03/23 08:25:29;;;;;;;6.22;4.68;;;;;;;;;;4999919;28;20195;-83
2021/03/23 08:28:15;;;;;;;5.78;4.65;;;;;;;;;;5000749;28;20258;-86
2021/03/23 08:31:12;;;;;;;6.28;5.78;;;;;;;;;;5000640;28;20359;-85
2021/03/23 08:33:52;;;;;;;7.63;6.38;;;;;;;;;;5001145;28;20215;-85
2021/03/23 08:36:37;;;;;;;7.65;6.40;;;;;;;;;;4997120;28;20282;-85
2021/03/23 08:39:17;;;;;;;8.93;7.40;;;;;;;;;;4996612;28;20207;-84
2021/03/23 08:42:07;;;;;;;9.25;7.85;;;;;;;;;;4997504;28;20270;-84
2021/03/23 08:44:47;;;;;;;9.90;6.97;;;;;;;;;;4996651;28;20187;-84
2021/03/23 08:47:27;;;;;;;11.48;9.50;;;;;;;;;;4995863;28;20266;-84
2021/03/23 08:50:07;;;;;;;15.52;10.50;;;;;;;;;;4997594;28;20654;-84
2021/03/23 08:52:45;;;;;;;15.65;12.27;;;;;;;;;;4996326;28;20190;-85
2021/03/23 08:55:48;;;;;;;14.60;10.55;;;;;;;;;;4995579;28;20286;-84
2021/03/23 08:58:19;;;;;;;13.55;11.95;;;;;;;;;;4995838;28;20817;-83
2021/03/23 09:01:00;;;;;;;16.35;13.18;;;;;;;;;;4996442;28;20188;-84
2021/03/23 09:03:45;;;;;;;17.65;14.02;;;;;;;;;;4996034;28;20658;-84
2021/03/23 09:06:18;;;;;;;14.93;12.82;;;;;;;;;;4994603;28;20199;-84
2021/03/23 09:08:55;;;;;;;21.73;16.20;;;;;;;;;;4995564;28;20639;-84
2021/03/23 09:12:03;;;;;;;22.33;17.55;;;;;;;;;;4976136;28;20542;-84
2021/03/23 09:14:33;;;;;;;19.30;14.15;;;;;;;;;;4963493;28;20215;-83
2021/03/23 09:17:19;;;;;;;19.58;15.07;;;;;;;;;;4983736;28;20254;-84
2021/03/23 09:19:55;;;;;;;18.88;14.13;;;;;;;;;;4997052;28;20211;-85
2021/03/23 09:22:44;;;;;;;17.33;13.48;;;;;;;;;;4995981;28;20203;-85
2021/03/23 09:25:50;;;;;;;16.33;14.07;;;;;;;;;;4995462;28;20207;-84
2021/03/23 09:28:46;;;;;;;19.70;14.65;;;;;;;;;;4976207;28;20608;-83
2021/03/23 09:31:22;;;;;;;21.17;15.75;;;;;;;;;;4975345;28;20651;-83
2021/03/23 09:33:52;;;;;;;24.77;17.85;;;;;;;;;;4976053;28;20599;-85
2021/03/23 09:36:46;;;;;;;20.48;16.75;;;;;;;;;;4975885;28;20196;-86
2021/03/23 09:39:47;;;;;;;19.45;15.52;;;;;;;;;;4964719;28;20201;-85
2021/03/23 09:42:31;;;;;;;19.67;15.55;;;;;;;;;;4956424;29;20691;-84
2021/03/23 09:45:27;;;;;;;22.20;16.90;;;;;;;;;;4962806;28;20264;-85
2021/03/23 09:48:48;;;;;;;22.38;18.67;;;;;;;;;;4968394;28;20228;-84
2021/03/23 09:51:44;;;;;;;21.67;15.25;;;;;;;;;;4961590;28;20189;-85
2021/03/23 09:54:31;;;;;;;20.83;15.90;;;;;;;;;;4956026;29;20256;-85
2021/03/23 09:57:11;;;;;;;19.95;16.05;;;;;;;;;;4964803;28;20220;-85
2021/03/23 09:59:51;;;;;;;22.35;18.30;;;;;;;;;;4975270;28;20203;-84
2021/03/23 10:02:28;;;;;;;23.95;18.52;;;;;;;;;;4974937;28;20202;-86
2021/03/23 10:05:17;;;;;;;22.58;17.73;;;;;;;;;;4976378;28;20196;-86
2021/03/23 10:07:45;;;;;;;26.23;17.73;;;;;;;;;;4976241;28;20225;-85
2021/03/23 10:10:28;;;;;;;25.90;16.83;;;;;;;;;;4972566;28;20205;-85
2021/03/23 10:12:57;;;;;;;21.52;17.05;;;;;;;;;;4967979;28;20212;-85
2021/03/23 10:15:33;;;;;;;21.30;16.83;;;;;;;;;;4967628;28;20280;-85
2021/03/23 10:18:12;;;;;;;20.40;16.95;;;;;;;;;;4986572;28;20335;-85
2021/03/23 10:20:41;;;;;;;22.02;16.80;;;;;;;;;;4994927;28;20291;-85
2021/03/23 10:23:08;;;;;;;21.10;16.40;;;;;;;;;;4976722;28;20263;-85
2021/03/23 10:25:44;;;;;;;23.48;17.63;;;;;;;;;;4981186;28;20196;-86
2021/03/23 10:28:26;;;;;;;24.08;18.35;;;;;;;;;;4976376;28;20216;-85
2021/03/23 10:30:59;;;;;;;22.40;16.98;;;;;;;;;;4978345;28;20729;-86
2021/03/23 10:33:33;;;;;;;20.58;16.38;;;;;;;;;;4996322;28;20279;-86
2021/03/23 10:36:02;;;;;;;21.02;15.73;;;;;;;;;;4994930;28;20210;-86
2021/03/23 10:38:40;;;;;;;22.73;19.17;;;;;;;;;;4974513;28;20315;-85
2021/03/23 10:41:33;;;;;;;22.90;18.80;;;;;;;;;;4975358;28;20251;-86
2021/03/23 10:44:27;;;;;;;25.42;18.85;;;;;;;;;;4975155;28;20938;-86
2021/03/23 10:46:59;;;;;;;21.35;15.65;;;;;;;;;;4983318;28;20283;-86
2021/03/23 10:49:36;;;;;;;19.38;16.30;;;;;;;;;;4996430;28;20219;-84
2021/03/23 10:52:26;;;;;;;23.17;17.13;;;;;;;;;;4994661;28;20372;-86
2021/03/23 10:55:25;;;;;;;24.40;18.02;;;;;;;;;;4998367;28;20570;-85
2021/03/23 10:58:14;;;;;;;23.48;17.02;;;;;;;;;;4986314;28;20238;-85
2021/03/23 11:00:44;;;;;;;24.02;16.85;;;;;;;;;;4976897;28;20541;-86
2021/03/23 11:03:32;;;;;;;19.75;15.80;;;;;;;;;;4996871;28;20200;-86
2021/03/23 11:06:29;;;;;;;25.63;17.52;;;;;;;;;;4998857;28;20192;-86
2021/03/23 11:08:57;;;;;;;19.40;14.23;;;;;;;;;;4998464;28;20280;-85
2021/03/23 11:11:27;;;;;;;24.83;17.67;;;;;;;;;;4998696;28;20732;-85
2021/03/23 11:14:15;;;;;;;25.85;18.08;;;;;;;;;;4996611;28;20222;-86
2021/03/23 11:16:44;;;;;;;22.67;16.55;;;;;;;;;;5000617;28;20291;-86
2021/03/23 11:19:27;;;;;;;19.77;15.82;;;;;;;;;;5004719;28;20214;-85
2021/03/23 11:21:58;;;;;;;21.63;16.63;;;;;;;;;;5006594;28;20179;-85
2021/03/23 11:24:28;;;;;;;19.85;14.23;;;;;;;;;;5006606;28;20227;-83
2021/03/23 11:26:56;;;;;;;22.67;16.67;;;;;;;;;;5006971;28;20215;-85
2021/03/23 11:29:23;;;;;;;20.67;16.20;;;;;;;;;;5006811;28;20208;-87
2021/03/23 11:31:50;;;;;;;21.38;17.52;;;;;;;;;;5000579;28;20263;-85
2021/03/23 11:34:17;;;;;;;19.70;14.60;;;;;;;;;;4996761;28;20771;-86
2021/03/23 11:36:44;;;;;;;19.42;15.32;;;;;;;;;;4997828;28;20295;-87
2021/03/23 11:39:12;;;;;;;19.60;15.07;;;;;;;;;;4999025;28;20196;-85
2021/03/23 11:41:42;;;;;;;20.90;15.60;;;;;;;;;;5000237;28;20654;-87
2021/03/23 11:44:14;;;;;;;19.02;14.13;;;;;;;;;;4997473;28;20259;-87
2021/03/23 11:46:48;;;;;;;18.48;13.60;;;;;;;;;;4998204;28;20214;-88
2021/03/23 11:49:22;;;;;;;20.05;16.17;;;;;;;;;;4998841;28;20287;-86
2021/03/23 11:51:49;;;;;;;16.65;12.90;;;;;;;;;;5000272;28;20196;-86
2021/03/23 11:54:17;;;;;;;15.82;12.55;;;;;;;;;;5001501;28;20218;-86
2021/03/23 11:56:46;;;;;;;15.32;12.02;;;;;;;;;;5001822;28;20231;-87
2021/03/23 11:59:14;;;;;;;17.75;13.48;;;;;;;;;;5001226;28;20263;-88
2021/03/23 12:01:42;;;;;;;17.27;12.80;;;;;;;;;;4996694;28;20271;-87
2021/03/23 12:04:10;;;;;;;20.80;14.85;;;;;;;;;;4997902;28;20544;-88
2021/03/23 12:06:43;;;;;;;18.42;14.98;;;;;;;;;;4996682;28;20685;-87
2021/03/23 12:09:18;;;;;;;18.05;13.38;;;;;;;;;;4996305;28;20200;-87
2021/03/23 12:11:55;;;;;;;16.20;13.60;;;;;;;;;;4997431;28;20755;-86
2021/03/23 12:14:32;;;;;;;19.35;13.38;;;;;;;;;;4996560;28;20204;-86
2021/03/23 12:17:04;;;;;;;20.08;13.60;;;;;;;;;;4996246;28;20698;-88
2021/03/23 12:19:35;;;;;;;19.65;15.32;;;;;;;;;;4996229;28;20226;-86
2021/03/23 12:22:04;;;;;;;18.73;14.35;;;;;;;;;;4996090;28;20212;-85
2021/03/23 12:24:31;;;;;;;17.50;13.15;;;;;;;;;;4995155;28;20680;-87
2021/03/23 12:27:00;;;;;;;22.98;13.93;;;;;;;;;;4996168;28;20318;-87
2021/03/23 12:29:27;;;;;;;16.17;12.90;;;;;;;;;;4995546;28;20208;-86
2021/03/23 12:31:54;;;;;;;16.92;12.80;;;;;;;;;;4994964;28;20306;-88
2021/03/23 12:34:21;;;;;;;22.38;15.45;;;;;;;;;;4995542;28;20230;-85
2021/03/23 12:36:48;;;;;;;15.52;13.75;;;;;;;;;;4994491;28;20299;-85
2021/03/23 12:39:17;;;;;;;18.08;13.13;;;;;;;;;;4995761;28;20210;-87
2021/03/23 12:41:45;;;;;;;19.65;15.07;;;;;;;;;;4995496;28;20187;-87
2021/03/23 12:44:13;;;;;;;17.20;14.32;;;;;;;;;;4996001;28;20270;-87
2021/03/23 12:46:40;;;;;;;20.95;14.88;;;;;;;;;;4996187;28;20231;-87
2021/03/23 12:49:07;;;;;;;16.40;12.63;;;;;;;;;;4996929;28;20270;-87
2021/03/23 12:51:39;;;;;;;17.52;13.07;;;;;;;;;;4995127;28;20224;-88
2021/03/23 12:54:07;;;;;;;15.40;12.05;;;;;;;;;;4995873;28;20621;-87
2021/03/23 12:56:34;;;;;;;16.63;13.43;;;;;;;;;;4994550;28;20204;-87
2021/03/23 12:59:02;;;;;;;17.95;12.18;;;;;;;;;;4995286;28;20180;-87
2021/03/23 13:01:30;;;;;;;21.02;13.63;;;;;;;;;;4995053;28;20595;-87
2021/03/23 13:03:57;;;;;;;20.17;14.18;;;;;;;;;;4993696;28;20200;-87
2021/03/23 13:06:28;;;;;;;17.45;13.73;;;;;;;;;;4994108;28;20661;-86
2021/03/23 13:08:56;;;;;;;14.82;13.18;;;;;;;;;;4994515;28;20195;-88
2021/03/23 13:11:27;;;;;;;19.05;13.70;;;;;;;;;;4994158;28;20224;-87
2021/03/23 13:13:59;;;;;;;18.45;13.50;;;;;;;;;;4993905;28;20275;-87
2021/03/23 13:16:27;;;;;;;18.38;13.68;;;;;;;;;;4994214;28;20192;-87
2021/03/23 13:18:55;;;;;;;17.95;13.93;;;;;;;;;;4993392;28;20223;-87
2021/03/23 13:21:26;;;;;;;21.52;15.00;;;;;;;;;;4996571;28;20279;-86
2021/03/23 13:23:57;;;;;;;19.33;13.68;;;;;;;;;;4993853;28;20724;-87
2021/03/23 13:26:27;;;;;;;18.92;13.85;;;;;;;;;;4993193;28;20231;-86
2021/03/23 13:29:00;;;;;;;16.58;14.27;;;;;;;;;;4994211;28;20730;-87
2021/03/23 13:31:30;;;;;;;16.48;13.52;;;;;;;;;;4993085;28;20239;-87
2021/03/23 13:33:59;;;;;;;18.98;13.85;;;;;;;;;;4995394;28;20195;-87
2021/03/23 13:36:32;;;;;;;17.23;13.65;;;;;;;;;;4995745;28;20618;-87
2021/03/23 13:39:03;;;;;;;18.08;13.52;;;;;;;;;;4995383;28;20561;-87
2021/03/23 13:41:30;;;;;;;19.65;15.27;;;;;;;;;;4992283;28;20287;-86
2021/03/23 13:44:06;;;;;;;21.38;13.20;;;;;;;;;;4994547;28;20616;-87
2021/03/23 13:46:37;;;;;;;21.80;14.77;;;;;;;;;;4994033;28;20199;-87
2021/03/23 13:49:06;;;;;;;19.60;13.80;;;;;;;;;;4995706;28;20202;-85
2021/03/23 13:51:33;;;;;;;17.00;12.43;;;;;;;;;;4995237;28;20235;-87
2021/03/23 13:54:01;;;;;;;19.75;13.35;;;;;;;;;;4994577;28;20207;-85
2021/03/23 13:56:29;;;;;;;17.85;14.50;;;;;;;;;;4992890;28;20207;-85
2021/03/23 13:58:57;;;;;;;19.90;11.90;;;;;;;;;;4992974;28;20203;-87
2021/03/23 14:01:24;;;;;;;15.63;12.95;;;;;;;;;;4993009;28;20212;-87
2021/03/23 14:03:53;;;;;;;16.80;13.73;;;;;;;;;;4991346;28;20188;-85
2021/03/23 14:06:25;;;;;;;18.48;15.38;;;;;;;;;;4992103;28;20191;-86
2021/03/23 14:08:53;;;;;;;22.02;15.77;;;;;;;;;;4994367;28;20234;-87
2021/03/23 14:11:23;;;;;;;17.60;14.45;;;;;;;;;;4993317;28;20208;-87
2021/03/23 14:13:50;;;;;;;23.08;16.00;;;;;;;;;;4995198;28;20199;-87
2021/03/23 14:16:17;;;;;;;18.35;15.18;;;;;;;;;;4996892;28;20295;-87
2021/03/23 14:18:44;;;;;;;17.45;14.20;;;;;;;;;;4995113;28;20231;-86
2021/03/23 14:21:16;;;;;;;15.55;12.15;;;;;;;;;;4998818;28;20215;-86
2021/03/23 14:23:47;;;;;;;15.73;12.82;;;;;;;;;;4998498;28;20184;-85
2021/03/23 14:26:15;;;;;;;14.63;12.38;;;;;;;;;;4999653;28;20669;-85
2021/03/23 14:28:50;;;;;;;14.10;12.35;;;;;;;;;;4998586;28;20318;-86
2021/03/23 14:31:19;;;;;;;17.00;13.98;;;;;;;;;;4998807;28;20230;-86
2021/03/23 14:33:47;;;;;;;16.35;12.75;;;;;;;;;;4996445;28;20211;-86
2021/03/23 14:36:16;;;;;;;12.55;10.98;;;;;;;;;;4996589;28;20199;-85
2021/03/23 14:38:44;;;;;;;17.42;13.25;;;;;;;;;;4996456;28;20268;-86
2021/03/23 14:41:18;;;;;;;16.58;13.98;;;;;;;;;;4996166;28;20192;-86
2021/03/23 14:43:45;;;;;;;17.70;13.43;;;;;;;;;;4991029;28;20255;-86
2021/03/23 14:46:18;;;;;;;19.15;13.63;;;;;;;;;;4995256;28;20199;-86
2021/03/23 14:48:45;;;;;;;13.70;11.77;;;;;;;;;;4994028;28;20274;-86
2021/03/23 14:51:12;;;;;;;16.83;11.38;;;;;;;;;;4995245;28;20289;-86
2021/03/23 14:53:42;;;;;;;12.30;11.00;;;;;;;;;;4992982;28;20211;-87
2021/03/23 14:56:12;;;;;;;14.70;13.13;;;;;;;;;;4991080;28;20196;-86
2021/03/23 14:58:39;;;;;;;14.27;11.43;;;;;;;;;;4992944;28;20254;-86
2021/03/23 15:01:07;;;;;;;14.80;11.63;;;;;;;;;;4993181;28;20612;-86
2021/03/23 15:03:34;;;;;;;15.18;11.30;;;;;;;;;;4992386;28;20203;-87
2021/03/23 15:06:01;;;;;;;12.43;11.02;;;;;;;;;;4992511;28;20210;-86
2021/03/23 15:08:32;;;;;;;13.38;11.70;;;;;;;;;;4992738;28;20298;-87